createdAt,value
2023-05-01T00:00:16.064Z,11.02
2023-05-01T00:03:43.446Z,11.08
2023-05-01T00:06:47.441Z,11.05
2023-05-01T00:09:51.795Z,11.17
2023-05-01T00:12:55.645Z,10.75
2023-05-01T00:16:00.597Z,10.49
2023-05-01T00:19:05.128Z,10.62
2023-05-01T00:22:08.811Z,10.99
2023-05-01T00:25:13.120Z,11.07
2023-05-01T00:28:16.686Z,11.14
2023-05-01T00:31:22.188Z,10.86
2023-05-01T00:34:25.898Z,10.67
2023-05-01T00:37:29.949Z,10.80
2023-05-01T00:40:33.908Z,10.92
2023-05-01T00:43:38.958Z,10.84
2023-05-01T00:46:43.971Z,10.82
2023-05-01T00:49:49.342Z,10.72
2023-05-01T00:52:52.868Z,9.91
2023-05-01T00:55:59.460Z,9.96
2023-05-01T00:59:02.974Z,9.78
2023-05-01T01:02:08.360Z,10.11
2023-05-01T01:05:11.979Z,10.23
2023-05-01T01:08:25.151Z,10.00
2023-05-01T01:11:39.383Z,9.94
2023-05-01T01:14:51.872Z,10.26
2023-05-01T01:18:05.412Z,10.11
2023-05-01T01:21:15.786Z,10.02
2023-05-01T01:24:37.443Z,9.92
2023-05-01T01:28:15.104Z,10.21
2023-05-01T01:31:23.644Z,10.10
2023-05-01T01:34:35.384Z,10.37
2023-05-01T01:37:44.168Z,10.62
2023-05-01T01:40:56.760Z,10.76
2023-05-01T01:44:04.071Z,10.82
2023-05-01T01:47:12.214Z,10.69
2023-05-01T01:50:19.238Z,10.58
2023-05-01T01:53:25.191Z,10.67
2023-05-01T01:56:33.027Z,10.90
2023-05-01T01:59:36.930Z,10.92
2023-05-01T02:02:42.330Z,10.77
2023-05-01T02:05:50.473Z,10.85
2023-05-01T02:08:55.592Z,10.49
2023-05-01T02:12:02.412Z,10.42
2023-05-01T02:15:09.413Z,10.08
2023-05-01T02:18:17.017Z,10.27
2023-05-01T02:21:23.091Z,10.31
2023-05-01T02:24:30.541Z,9.76
2023-05-01T02:27:39.512Z,9.48
2023-05-01T02:30:43.504Z,9.48
2023-05-01T02:33:47.024Z,9.57
2023-05-01T02:36:52.477Z,9.69
2023-05-01T02:39:57.244Z,9.58
2023-05-01T02:43:06.826Z,9.69
2023-05-01T02:46:13.742Z,9.56
2023-05-01T02:49:19.731Z,9.77
2023-05-01T02:52:25.074Z,9.92
2023-05-01T02:55:38.838Z,9.71
2023-05-01T02:58:43.195Z,10.10
2023-05-01T03:01:47.421Z,9.96
2023-05-01T03:04:50.871Z,10.11
2023-05-01T03:07:56.418Z,10.30
2023-05-01T03:10:59.878Z,10.30
2023-05-01T03:14:03.743Z,10.04
2023-05-01T03:18:23.525Z,9.89
2023-05-01T03:21:27.592Z,10.06
2023-05-01T03:24:32.660Z,10.22
2023-05-01T03:27:36.825Z,10.16
2023-05-01T03:30:40.244Z,10.17
2023-05-01T03:33:44.205Z,10.27
2023-05-01T03:36:47.924Z,10.32
2023-05-01T03:39:53.241Z,10.25
2023-05-01T03:43:26.313Z,10.26
2023-05-01T03:46:32.171Z,9.97
2023-05-01T03:49:35.864Z,9.93
2023-05-01T03:52:39.686Z,10.01
2023-05-01T03:55:45.101Z,9.85
2023-05-01T03:58:50.811Z,9.49
2023-05-01T04:01:54.811Z,9.54
2023-05-01T04:04:59.224Z,8.73
2023-05-01T04:08:04.390Z,9.35
2023-05-01T04:11:11.014Z,9.38
2023-05-01T04:14:14.702Z,9.31
2023-05-01T04:17:18.704Z,9.62
2023-05-01T04:20:22.491Z,9.28
2023-05-01T04:23:26.779Z,9.17
2023-05-01T04:26:35.820Z,9.23
2023-05-01T04:29:41.806Z,9.35
2023-05-01T04:32:45.872Z,9.55
2023-05-01T04:35:50.186Z,9.71
2023-05-01T04:38:54.068Z,9.62
2023-05-01T04:41:59.452Z,9.77
2023-05-01T04:45:04.210Z,9.62
2023-05-01T04:48:11.989Z,9.64
2023-05-01T04:51:16.008Z,9.90
2023-05-01T04:54:19.773Z,9.96
2023-05-01T04:57:25.520Z,9.63
2023-05-01T05:00:30.861Z,10.08
2023-05-01T05:03:35.917Z,10.40
2023-05-01T05:06:39.965Z,10.13
2023-05-01T05:09:49.530Z,10.47
2023-05-01T05:12:54.872Z,10.83
2023-05-01T05:15:58.535Z,10.99
2023-05-01T05:19:03.644Z,10.81
2023-05-01T05:22:13.657Z,10.97
2023-05-01T05:25:38.196Z,10.93
2023-05-01T05:28:43.085Z,11.02
2023-05-01T05:31:47.385Z,10.65
2023-05-01T05:34:51.787Z,10.79
2023-05-01T05:37:56.038Z,10.77
2023-05-01T05:41:01.088Z,11.02
2023-05-01T05:44:09.102Z,11.14
2023-05-01T05:47:12.748Z,11.48
2023-05-01T05:50:17.184Z,11.99
2023-05-01T05:53:28.142Z,11.91
2023-05-01T05:56:39.019Z,11.60
2023-05-01T05:59:45.507Z,12.30
2023-05-01T06:02:51.728Z,12.71
2023-05-01T06:05:57.060Z,12.89
2023-05-01T06:09:02.374Z,13.44
2023-05-01T06:12:07.297Z,13.67
2023-05-01T06:15:17.215Z,14.08
2023-05-01T06:18:30.212Z,14.83
2023-05-01T06:21:35.610Z,15.07
2023-05-01T06:24:39.826Z,15.51
2023-05-01T06:27:46.044Z,15.71
2023-05-01T06:30:51.364Z,16.10
2023-05-01T06:33:57.209Z,16.23
2023-05-01T06:37:18.260Z,16.96
2023-05-01T06:40:22.711Z,17.79
2023-05-01T06:43:30.571Z,18.62
2023-05-01T06:46:36.015Z,19.66
2023-05-01T06:49:39.908Z,20.59
2023-05-01T06:52:45.656Z,21.14
2023-05-01T06:55:49.255Z,21.53
2023-05-01T06:58:53.484Z,22.18
2023-05-01T07:01:58.360Z,22.80
2023-05-01T07:05:02.472Z,23.02
2023-05-01T07:08:06.657Z,23.74
2023-05-01T07:11:10.952Z,24.26
2023-05-01T07:14:14.457Z,24.52
2023-05-01T07:17:19.781Z,24.86
2023-05-01T07:20:23.508Z,25.49
2023-05-01T07:23:27.561Z,25.85
2023-05-01T07:26:31.078Z,26.13
2023-05-01T07:29:37.241Z,26.26
2023-05-01T07:32:44.465Z,26.62
2023-05-01T07:35:48.281Z,27.12
2023-05-01T07:38:51.893Z,26.99
2023-05-01T07:41:58.264Z,27.72
2023-05-01T07:45:01.775Z,28.03
2023-05-01T07:48:07.588Z,28.59
2023-05-01T07:51:11.222Z,29.12
2023-05-01T07:54:16.508Z,29.24
2023-05-01T07:57:20.005Z,28.94
2023-05-01T08:00:23.920Z,29.14
2023-05-01T08:03:30.776Z,29.35
2023-05-01T08:06:54.787Z,29.44
2023-05-01T08:10:00.475Z,27.91
2023-05-01T08:13:04.781Z,26.78
2023-05-01T08:16:09.099Z,25.79
2023-05-01T08:19:16.061Z,25.37
2023-05-01T08:22:19.460Z,24.67
2023-05-01T08:25:24.667Z,23.88
2023-05-01T08:28:28.261Z,23.59
2023-05-01T08:31:32.294Z,23.27
2023-05-01T08:34:37.781Z,23.12
2023-05-01T08:37:41.615Z,22.82
2023-05-01T08:40:52.365Z,22.72
2023-05-01T08:44:03.244Z,22.37
2023-05-01T08:47:13.767Z,22.36
2023-05-01T08:50:19.608Z,22.19
2023-05-01T08:53:25.175Z,22.15
2023-05-01T08:56:31.307Z,22.15
2023-05-01T08:59:35.816Z,21.76
2023-05-01T09:02:42.452Z,21.80
2023-05-01T09:05:47.732Z,21.80
2023-05-01T09:09:16.708Z,21.59
2023-05-01T09:12:25.929Z,21.61
2023-05-01T09:15:31.458Z,21.44
2023-05-01T09:18:35.953Z,21.46
2023-05-01T09:21:42.707Z,21.27
2023-05-01T09:24:46.992Z,20.79
2023-05-01T09:27:50.836Z,20.91
2023-05-01T09:30:54.822Z,20.77
2023-05-01T09:34:00.229Z,20.61
2023-05-01T09:37:05.244Z,20.47
2023-05-01T09:40:12.017Z,20.63
2023-05-01T09:43:17.178Z,20.68
2023-05-01T09:46:22.888Z,19.72
2023-05-01T09:49:45.864Z,20.24
2023-05-01T09:52:53.441Z,20.09
2023-05-01T09:56:02.368Z,19.86
2023-05-01T09:59:17.310Z,19.46
2023-05-01T10:02:29.972Z,19.72
2023-05-01T10:05:44.361Z,19.78
2023-05-01T10:08:51.382Z,19.63
2023-05-01T10:11:57.740Z,19.03
2023-05-01T10:15:10.775Z,19.24
2023-05-01T10:18:19.451Z,19.48
2023-05-01T10:21:23.540Z,19.68
2023-05-01T10:24:28.709Z,19.88
2023-05-01T10:27:33.536Z,19.58
2023-05-01T10:30:38.249Z,19.24
2023-05-01T10:33:42.880Z,19.62
2023-05-01T10:36:50.509Z,19.60
2023-05-01T10:39:55.681Z,19.62
2023-05-01T10:43:21.159Z,19.89
2023-05-01T10:46:29.914Z,19.79
2023-05-01T10:50:07.385Z,19.32
2023-05-01T10:53:18.295Z,19.38
2023-05-01T10:56:44.362Z,19.64
2023-05-01T11:00:13.625Z,19.56
2023-05-01T11:03:36.645Z,19.16
2023-05-01T11:07:18.008Z,19.33
2023-05-01T11:10:28.349Z,19.33
2023-05-01T11:14:00.875Z,19.40
2023-05-01T11:17:04.617Z,19.48
2023-05-01T11:20:09.478Z,19.53
2023-05-01T11:23:18.824Z,19.32
2023-05-01T11:26:24.859Z,19.47
2023-05-01T11:29:42.267Z,19.42
2023-05-01T11:32:48.196Z,19.51
2023-05-01T11:36:01.180Z,19.94
2023-05-01T11:39:06.317Z,19.64
2023-05-01T11:42:10.991Z,19.78
2023-05-01T11:45:35.316Z,19.91
2023-05-01T11:48:41.834Z,20.15
2023-05-01T11:51:45.691Z,19.79
2023-05-01T11:54:49.670Z,19.90
2023-05-01T11:57:54.848Z,20.08
2023-05-01T12:01:05.856Z,19.93
2023-05-01T12:04:10.087Z,19.91
2023-05-01T12:07:21.970Z,20.06
2023-05-01T12:10:25.933Z,19.52
2023-05-01T12:13:30.123Z,19.60
2023-05-01T12:16:36.316Z,19.45
2023-05-01T12:19:49.842Z,19.48
2023-05-01T12:22:53.863Z,19.79
2023-05-01T12:25:58.438Z,19.67
2023-05-01T12:29:03.227Z,19.78
2023-05-01T12:32:09.594Z,19.87
2023-05-01T12:35:16.978Z,19.96
2023-05-01T12:38:22.702Z,19.78
2023-05-01T12:41:38.185Z,19.88
2023-05-01T12:44:44.275Z,19.84
2023-05-01T12:47:49.687Z,19.91
2023-05-01T12:50:55.622Z,20.04
2023-05-01T12:53:59.349Z,20.19
2023-05-01T12:57:08.182Z,20.09
2023-05-01T13:00:13.402Z,19.93
2023-05-01T13:03:25.077Z,19.87
2023-05-01T13:06:34.697Z,20.15
2023-05-01T13:09:39.385Z,20.39
2023-05-01T13:12:46.344Z,19.90
2023-05-01T13:15:50.158Z,20.46
2023-05-01T13:18:55.632Z,20.35
2023-05-01T13:22:00.221Z,20.49
2023-05-01T13:25:05.232Z,20.43
2023-05-01T13:28:09.404Z,20.36
2023-05-01T13:31:14.635Z,20.58
2023-05-01T13:34:25.657Z,20.26
2023-05-01T13:37:29.298Z,20.54
2023-05-01T13:40:36.263Z,20.69
2023-05-01T13:43:41.240Z,20.38
2023-05-01T13:46:45.452Z,20.35
2023-05-01T13:49:50.769Z,20.56
2023-05-01T13:52:55.051Z,20.12
2023-05-01T13:55:58.746Z,20.44
2023-05-01T13:59:03.096Z,20.44
2023-05-01T14:02:20.684Z,20.58
2023-05-01T14:08:32.632Z,20.61
2023-05-01T14:11:42.114Z,20.41
2023-05-01T14:14:49.057Z,20.26
2023-05-01T14:17:53.599Z,20.41
2023-05-01T14:21:00.700Z,20.40
2023-05-01T14:24:05.131Z,20.48
2023-05-01T14:27:10.084Z,20.51
2023-05-01T14:30:20.073Z,20.68
2023-05-01T14:33:23.806Z,20.54
2023-05-01T14:36:31.264Z,20.51
2023-05-01T14:39:34.887Z,20.66
2023-05-01T14:42:43.255Z,20.71
2023-05-01T14:45:49.764Z,20.71
2023-05-01T14:48:54.207Z,20.85
2023-05-01T14:51:59.173Z,20.56
2023-05-01T14:55:03.144Z,20.58
2023-05-01T14:58:06.881Z,20.37
2023-05-01T15:01:11.216Z,20.59
2023-05-01T15:04:14.898Z,20.57
2023-05-01T15:07:20.608Z,20.57
2023-05-01T15:10:24.332Z,20.62
2023-05-01T15:13:28.971Z,20.55
2023-05-01T15:16:32.774Z,20.75
2023-05-01T15:19:37.481Z,20.53
2023-05-01T15:22:42.290Z,20.82
2023-05-01T15:25:48.052Z,20.45
2023-05-01T15:28:51.907Z,20.59
2023-05-01T15:32:08.196Z,20.31
2023-05-01T15:35:16.687Z,20.32
2023-05-01T15:38:22.199Z,20.38
2023-05-01T15:41:25.757Z,20.44
2023-05-01T15:44:29.715Z,20.35
2023-05-01T15:47:33.633Z,20.40
2023-05-01T15:50:37.800Z,20.37
2023-05-01T15:53:42.935Z,20.37
2023-05-01T15:56:47.379Z,20.04
2023-05-01T15:59:54.081Z,19.91
2023-05-01T16:02:58.457Z,19.91
2023-05-01T16:06:03.008Z,19.99
2023-05-01T16:09:08.829Z,20.09
2023-05-01T16:12:12.594Z,20.01
2023-05-01T16:15:17.070Z,19.98
2023-05-01T16:18:24.571Z,20.06
2023-05-01T16:21:29.242Z,19.86
2023-05-01T16:24:35.997Z,19.96
2023-05-01T16:27:42.444Z,19.96
2023-05-01T16:30:46.752Z,19.88
2023-05-01T16:33:51.864Z,19.92
2023-05-01T16:36:56.478Z,19.93
2023-05-01T16:40:04.619Z,19.88
2023-05-01T16:43:08.041Z,19.78
2023-05-01T16:46:12.308Z,20.08
2023-05-01T16:49:18.878Z,20.18
2023-05-01T16:52:22.761Z,20.03
2023-05-01T16:55:28.414Z,19.82
2023-05-01T16:58:32.498Z,19.94
2023-05-01T17:01:36.332Z,19.86
2023-05-01T17:04:40.397Z,19.82
2023-05-01T17:07:44.321Z,19.72
2023-05-01T17:10:50.079Z,19.52
2023-05-01T17:13:53.636Z,19.54
2023-05-01T17:16:58.736Z,19.57
2023-05-01T17:20:02.463Z,19.65
2023-05-01T17:23:06.840Z,19.18
2023-05-01T17:26:13.589Z,19.44
2023-05-01T17:29:17.767Z,19.35
2023-05-01T17:32:35.730Z,19.19
2023-05-01T17:35:41.937Z,19.22
2023-05-01T17:38:45.650Z,18.97
2023-05-01T17:41:51.315Z,19.05
2023-05-01T17:44:54.694Z,19.16
2023-05-01T17:48:00.942Z,19.25
2023-05-01T17:51:04.803Z,19.24
2023-05-01T17:54:08.714Z,18.66
2023-05-01T17:57:13.872Z,18.57
2023-05-01T18:00:18.532Z,18.49
2023-05-01T18:03:23.618Z,18.33
2023-05-01T18:06:27.543Z,17.84
2023-05-01T18:09:31.144Z,17.59
2023-05-01T18:12:36.598Z,17.44
2023-05-01T18:15:40.172Z,17.24
2023-05-01T18:18:44.077Z,17.32
2023-05-01T18:21:47.599Z,17.45
2023-05-01T18:24:51.562Z,17.64
2023-05-01T18:27:57.538Z,17.36
2023-05-01T18:31:01.811Z,17.32
2023-05-01T18:34:06.486Z,17.44
2023-05-01T18:37:10.328Z,17.57
2023-05-01T18:40:14.539Z,17.70
2023-05-01T18:43:19.936Z,17.59
2023-05-01T18:46:24.457Z,17.77
2023-05-01T18:49:28.297Z,17.56
2023-05-01T18:52:32.199Z,17.81
2023-05-01T18:55:36.678Z,17.61
2023-05-01T18:58:41.809Z,17.70
2023-05-01T19:01:47.704Z,17.84
2023-05-01T19:04:57.561Z,17.77
2023-05-01T19:08:05.189Z,17.79
2023-05-01T19:11:08.650Z,17.57
2023-05-01T19:14:14.062Z,17.67
2023-05-01T19:17:17.680Z,17.70
2023-05-01T19:20:22.030Z,17.72
2023-05-01T19:23:27.233Z,17.76
2023-05-01T19:26:31.063Z,17.64
2023-05-01T19:29:35.972Z,17.66
2023-05-01T19:32:40.113Z,17.52
2023-05-01T19:35:43.763Z,17.52
2023-05-01T19:38:47.746Z,17.09
2023-05-01T19:41:52.509Z,16.98
2023-05-01T19:44:58.221Z,16.82
2023-05-01T19:48:02.538Z,16.44
2023-05-01T19:51:06.600Z,16.20
2023-05-01T19:54:10.317Z,16.42
2023-05-01T19:57:17.123Z,16.48
2023-05-01T20:00:22.387Z,16.77
2023-05-01T20:03:26.599Z,16.77
2023-05-01T20:06:30.388Z,16.52
2023-05-01T20:09:34.526Z,16.86
2023-05-01T20:12:38.386Z,17.04
2023-05-01T20:15:43.566Z,16.95
2023-05-01T20:18:46.926Z,16.73
2023-05-01T20:21:51.100Z,16.87
2023-05-01T20:24:55.932Z,16.56
2023-05-01T20:28:00.194Z,16.25
2023-05-01T20:31:05.148Z,16.05
2023-05-01T20:34:09.227Z,15.27
2023-05-01T20:37:12.961Z,15.68
2023-05-01T20:40:17.125Z,15.20
2023-05-01T20:43:20.601Z,14.90
2023-05-01T20:46:26.148Z,15.04
2023-05-01T20:49:30.489Z,15.01
2023-05-01T20:52:35.499Z,15.13
2023-05-01T20:55:39.663Z,15.07
2023-05-01T20:58:43.577Z,15.26
2023-05-01T21:01:49.741Z,15.23
2023-05-01T21:04:53.996Z,15.25
2023-05-01T21:07:58.330Z,15.41
2023-05-01T21:11:03.661Z,15.21
2023-05-01T21:14:07.353Z,15.21
2023-05-01T21:17:13.280Z,15.11
2023-05-01T21:20:17.825Z,15.03
2023-05-01T21:23:21.626Z,15.45
2023-05-01T21:26:25.289Z,15.41
2023-05-01T21:29:29.724Z,15.44
2023-05-01T21:32:40.499Z,15.07
2023-05-01T21:35:46.974Z,15.01
2023-05-01T21:38:51.386Z,15.07
2023-05-01T21:42:05.027Z,15.16
2023-05-01T21:45:10.234Z,14.73
2023-05-01T21:48:17.718Z,14.35
2023-05-01T21:51:27.205Z,14.18
2023-05-01T21:54:32.813Z,14.60
2023-05-01T21:57:36.706Z,14.48
2023-05-01T22:00:41.815Z,14.07
2023-05-01T22:03:48.295Z,14.36
2023-05-01T22:06:52.237Z,14.24
2023-05-01T22:09:55.850Z,14.41
2023-05-01T22:13:00.027Z,14.39
2023-05-01T22:16:04.515Z,14.58
2023-05-01T22:19:11.926Z,14.81
2023-05-01T22:22:15.382Z,14.83
2023-05-01T22:25:19.220Z,15.04
2023-05-01T22:28:22.822Z,15.22
2023-05-01T22:31:26.838Z,15.34
2023-05-01T22:34:31.737Z,15.38
2023-05-01T22:37:35.691Z,15.38
2023-05-01T22:40:39.228Z,15.43
2023-05-01T22:43:43.077Z,15.25
2023-05-01T22:46:47.156Z,15.03
2023-05-01T22:49:52.565Z,14.51
2023-05-01T22:52:56.150Z,14.82
2023-05-01T22:56:00.004Z,14.58
2023-05-01T22:59:03.581Z,14.45
2023-05-01T23:02:07.511Z,14.00
2023-05-01T23:05:13.382Z,14.24
2023-05-01T23:08:17.183Z,14.30
2023-05-01T23:11:21.375Z,14.07
2023-05-01T23:14:25.603Z,14.27
2023-05-01T23:17:34.990Z,14.34
2023-05-01T23:20:41.789Z,13.87
2023-05-01T23:23:46.574Z,13.87
2023-05-01T23:26:50.562Z,13.38
2023-05-01T23:29:56.551Z,13.83
2023-05-01T23:33:00.980Z,13.85
2023-05-01T23:36:10.288Z,14.04
2023-05-01T23:39:16.442Z,13.71
2023-05-01T23:42:20.369Z,14.15
2023-05-01T23:45:24.517Z,14.20
2023-05-01T23:48:28.147Z,14.21
2023-05-01T23:51:34.144Z,14.16
2023-05-01T23:54:37.620Z,14.21
2023-05-01T23:57:41.741Z,14.30
